createdAt,value
2022-11-10T00:01:32.464Z,11.8
2022-11-10T00:06:35.011Z,11.8
2022-11-10T00:11:37.744Z,11.8
2022-11-10T00:16:39.751Z,11.8
2022-11-10T00:21:41.695Z,11.8
2022-11-10T00:26:43.602Z,11.8
2022-11-10T00:31:46.023Z,11.8
2022-11-10T00:36:47.959Z,11.8
2022-11-10T00:41:49.932Z,11.8
2022-11-10T00:46:52.527Z,11.9
2022-11-10T00:51:54.595Z,11.8
2022-11-10T00:56:56.566Z,11.9
2022-11-10T01:01:59.040Z,12
2022-11-10T01:07:01.205Z,11.9
2022-11-10T01:12:03.305Z,12
2022-11-10T01:17:05.610Z,12
2022-11-10T01:22:07.539Z,12
2022-11-10T01:27:09.626Z,11.9
2022-11-10T01:32:11.633Z,11.9
2022-11-10T01:37:13.613Z,11.9
2022-11-10T01:42:15.593Z,12
2022-11-10T01:47:17.972Z,11.9
2022-11-10T01:52:20.017Z,11.9
2022-11-10T01:57:21.971Z,11.9
2022-11-10T02:02:24.060Z,11.9
2022-11-10T02:07:25.996Z,12
2022-11-10T02:12:28.020Z,12
2022-11-10T02:17:30.476Z,12
2022-11-10T02:22:32.409Z,11.9
2022-11-10T02:27:34.330Z,11.9
2022-11-10T02:32:36.321Z,11.9
2022-11-10T02:37:38.877Z,11.7
2022-11-10T02:42:41.246Z,11.7
2022-11-10T02:47:43.928Z,11.6
2022-11-10T02:52:46.193Z,11.6
2022-11-10T02:57:48.221Z,11.5
2022-11-10T03:02:50.353Z,11.4
2022-11-10T03:07:52.320Z,11.3
2022-11-10T03:12:54.291Z,11.1
2022-11-10T03:17:56.594Z,10.9
2022-11-10T03:22:58.480Z,10.8
2022-11-10T03:28:00.454Z,10.7
2022-11-10T03:33:02.463Z,10.6
2022-11-10T03:38:04.414Z,10.4
2022-11-10T03:43:06.393Z,10.4
2022-11-10T03:48:08.970Z,10.4
2022-11-10T03:53:11.577Z,10.4
2022-11-10T03:58:13.977Z,10.5
2022-11-10T04:03:16.251Z,10.5
2022-11-10T04:08:18.303Z,10.6
2022-11-10T04:13:21.694Z,10.5
2022-11-10T04:18:24.527Z,10.4
2022-11-10T04:23:27.175Z,10.2
2022-11-10T04:28:29.185Z,10.2
2022-11-10T04:33:31.288Z,10.3
2022-11-10T04:38:33.332Z,10.2
2022-11-10T04:43:35.265Z,10.2
2022-11-10T04:48:37.697Z,9.8
2022-11-10T04:53:40.138Z,9.8
2022-11-10T04:58:42.397Z,9.9
2022-11-10T05:03:44.404Z,9.9
2022-11-10T05:08:46.401Z,9.8
2022-11-10T05:13:48.387Z,9.9
2022-11-10T05:18:50.746Z,9.9
2022-11-10T05:23:53.181Z,10
2022-11-10T05:28:55.284Z,10
2022-11-10T05:33:57.915Z,10.2
2022-11-10T05:38:59.964Z,10.1
2022-11-10T05:44:01.924Z,10.1
2022-11-10T05:49:04.032Z,10.1
2022-11-10T05:54:06.241Z,10
2022-11-10T05:59:08.349Z,9.9
2022-11-10T06:04:10.454Z,9.9
2022-11-10T06:09:12.416Z,9.8
2022-11-10T06:14:14.326Z,9.9
2022-11-10T06:19:16.329Z,9.9
2022-11-10T06:24:18.259Z,10
2022-11-10T06:29:28.077Z,10.3
2022-11-10T06:34:30.045Z,10.3
2022-11-10T06:39:31.937Z,10.4
2022-11-10T06:44:33.971Z,10.6
2022-11-10T06:49:35.936Z,10.7
2022-11-10T06:54:38.209Z,10.7
2022-11-10T06:59:40.219Z,10.8
2022-11-10T07:04:42.712Z,11
2022-11-10T07:09:44.988Z,10.9
2022-11-10T07:14:47.073Z,11
2022-11-10T07:19:48.996Z,11.1
2022-11-10T07:24:52.076Z,11.4
2022-11-10T07:29:54.692Z,11.4
2022-11-10T07:34:56.915Z,11.6
2022-11-10T07:39:58.945Z,11.6
2022-11-10T07:45:00.878Z,11.7
2022-11-10T07:50:03.202Z,11.7
2022-11-10T07:55:05.371Z,11.7
2022-11-10T08:00:08.003Z,11.7
2022-11-10T08:05:09.951Z,11.7
2022-11-10T08:10:13.782Z,11.8
2022-11-10T08:15:16.113Z,11.9
2022-11-10T08:20:17.954Z,12.1
2022-11-10T08:25:19.973Z,12.1
2022-11-10T08:30:22.036Z,12.1
2022-11-10T08:35:23.991Z,12.3
2022-11-10T08:40:26.389Z,19.6
2022-11-10T08:45:28.314Z,19.4
2022-11-10T08:50:30.272Z,22.6
2022-11-10T08:55:32.474Z,24.4
2022-11-10T09:00:34.659Z,22.6
2022-11-10T09:05:36.592Z,19.5
2022-11-10T09:10:38.623Z,17.2
2022-11-10T09:15:40.700Z,15.8
2022-11-10T09:20:42.771Z,15.2
2022-11-10T09:25:44.672Z,15.2
2022-11-10T09:30:46.670Z,16.1
2022-11-10T09:35:48.601Z,18.9
2022-11-10T09:40:50.565Z,20.3
2022-11-10T09:45:52.831Z,18.4
2022-11-10T09:50:54.805Z,17.7
2022-11-10T09:55:56.946Z,16.7
2022-11-10T10:00:59.179Z,16.2
2022-11-10T10:06:01.197Z,15.7
2022-11-10T10:11:03.081Z,15.4
2022-11-10T10:16:05.030Z,14.9
2022-11-10T10:26:08.429Z,14.2
2022-11-10T10:31:10.428Z,14.4
2022-11-10T10:36:14.342Z,14.4
2022-11-10T10:41:25.168Z,14.1
2022-11-10T10:46:17.139Z,14
2022-11-10T10:51:19.724Z,13.7
2022-11-10T10:56:23.008Z,13.7
2022-11-10T11:01:25.069Z,13.8
2022-11-10T11:06:27.215Z,13.8
2022-11-10T11:11:29.181Z,13.8
2022-11-10T11:16:31.739Z,13.9
2022-11-10T11:21:33.716Z,13.9
2022-11-10T11:26:35.647Z,14.1
2022-11-10T11:31:44.676Z,14.5
2022-11-10T11:36:47.228Z,14.7
2022-11-10T11:41:49.081Z,14.7
2022-11-10T11:46:51.487Z,14.9
2022-11-10T11:51:53.466Z,14.8
2022-11-10T11:56:56.103Z,14.5
2022-11-10T12:01:58.127Z,14.3
2022-11-10T12:07:00.393Z,14.2
2022-11-10T12:12:02.568Z,14
2022-11-10T12:17:04.501Z,13.8
2022-11-10T12:22:07.100Z,14.2
2022-11-10T12:27:09.008Z,14.2
2022-11-10T12:32:10.916Z,14.4
2022-11-10T12:37:12.876Z,14.4
2022-11-10T12:42:17.263Z,14.6
2022-11-10T12:47:33.732Z,14.1
2022-11-10T12:52:25.675Z,14.1
2022-11-10T12:57:27.882Z,14.1
2022-11-10T13:02:29.810Z,14
2022-11-10T13:07:31.921Z,13.9
2022-11-10T13:12:33.860Z,13.8
2022-11-10T13:17:35.776Z,13.7
2022-11-10T13:22:38.146Z,13.6
2022-11-10T13:27:40.104Z,13.4
2022-11-10T13:32:42.043Z,13.3
2022-11-10T13:37:44.217Z,13.3
2022-11-10T13:42:49.067Z,13.3
2022-11-10T13:47:51.179Z,13.2
2022-11-10T13:52:53.722Z,13.1
2022-11-10T13:57:55.916Z,13.1
2022-11-10T14:02:58.182Z,13
2022-11-10T14:08:00.265Z,13
2022-11-10T14:13:02.221Z,12.9
2022-11-10T14:18:04.208Z,12.9
2022-11-10T14:23:06.445Z,12.8
2022-11-10T14:28:08.395Z,12.7
2022-11-10T14:33:10.422Z,12.6
2022-11-10T14:38:22.150Z,12.5
2022-11-10T14:43:14.859Z,12.5
2022-11-10T14:48:16.758Z,12.4
2022-11-10T14:53:19.210Z,12.4
2022-11-10T14:58:22.854Z,12.2
2022-11-10T15:03:25.577Z,12.2
2022-11-10T15:08:28.041Z,12.2
2022-11-10T15:13:29.964Z,12.1
2022-11-10T15:18:31.892Z,12.1
2022-11-10T15:23:35.716Z,12
2022-11-10T15:28:37.770Z,12
2022-11-10T15:33:39.738Z,11.9
2022-11-10T15:38:41.672Z,11.9
2022-11-10T15:43:43.804Z,11.8
2022-11-10T15:48:45.689Z,11.8
2022-11-10T15:53:47.525Z,11.8
2022-11-10T15:58:49.934Z,11.7
2022-11-10T16:03:51.912Z,11.7
2022-11-10T16:08:54.025Z,11.6
2022-11-10T16:13:56.025Z,11.5
2022-11-10T16:18:58.312Z,11.6
2022-11-10T16:24:00.599Z,11.6
2022-11-10T16:29:02.752Z,11.5
2022-11-10T16:34:04.623Z,11.5
2022-11-10T16:39:06.554Z,11.5
2022-11-10T16:44:08.625Z,11.4
2022-11-10T16:49:10.735Z,11.4
2022-11-10T16:54:12.951Z,11.4
2022-11-10T16:59:15.290Z,11.3
2022-11-10T17:04:17.590Z,11.3
2022-11-10T17:09:19.842Z,11.3
2022-11-10T17:14:21.795Z,11.2
2022-11-10T17:19:23.706Z,11.2
2022-11-10T17:24:26.124Z,11.1
2022-11-10T17:29:32.719Z,11.1
2022-11-10T17:34:34.751Z,11.1
2022-11-10T17:39:36.796Z,11.1
2022-11-10T17:44:38.874Z,11.1
2022-11-10T17:49:40.803Z,11.1
2022-11-10T17:54:42.925Z,11
2022-11-10T17:59:44.988Z,11
2022-11-10T18:04:46.937Z,11
2022-11-10T18:09:49.050Z,11
2022-11-10T18:14:51.001Z,10.9
2022-11-10T18:19:52.994Z,10.9
2022-11-10T18:24:55.013Z,10.9
2022-11-10T18:29:57.131Z,10.8
2022-11-10T18:34:59.112Z,10.8
2022-11-10T18:40:01.094Z,10.8
2022-11-10T18:45:03.727Z,10.8
2022-11-10T18:50:05.741Z,10.8
2022-11-10T18:55:11.042Z,10.7
2022-11-10T19:00:13.220Z,10.8
2022-11-10T19:05:15.756Z,10.7
2022-11-10T19:10:17.705Z,10.6
2022-11-10T19:15:19.697Z,10.6
2022-11-10T19:20:21.650Z,10.5
2022-11-10T19:25:23.818Z,10.4
2022-11-10T19:30:25.871Z,10.2
2022-11-10T19:35:27.850Z,10.2
2022-11-10T19:40:30.447Z,9.9
2022-11-10T19:45:32.359Z,9.8
2022-11-10T19:50:37.097Z,9.7
2022-11-10T19:55:39.653Z,9.3
2022-11-10T20:00:41.816Z,9.3
2022-11-10T20:05:43.803Z,9.2
2022-11-10T20:10:46.407Z,9
2022-11-10T20:15:49.432Z,8.9
2022-11-10T20:20:51.090Z,8.9
2022-11-10T20:25:53.408Z,8.9
2022-11-10T20:30:55.581Z,8.8
2022-11-10T20:35:58.385Z,8.7
2022-11-10T20:41:01.091Z,8.5
2022-11-10T20:46:03.442Z,8.4
2022-11-10T20:51:05.579Z,8.4
2022-11-10T20:56:07.627Z,8.4
2022-11-10T21:01:09.918Z,8.4
2022-11-10T21:06:12.160Z,8.3
2022-11-10T21:11:14.243Z,8.2
2022-11-10T21:16:16.377Z,8.2
2022-11-10T21:21:18.416Z,8.1
2022-11-10T21:26:20.630Z,8
2022-11-10T21:31:22.696Z,8
2022-11-10T21:36:24.725Z,7.9
2022-11-10T21:41:26.853Z,7.8
2022-11-10T21:46:28.890Z,7.7
2022-11-10T21:51:30.985Z,7.7
2022-11-10T21:56:33.042Z,7.6
2022-11-10T22:01:35.915Z,7.6
2022-11-10T22:06:38.467Z,7.5
2022-11-10T22:16:41.357Z,7.4
2022-11-10T22:21:43.387Z,7.3
2022-11-10T22:26:45.794Z,7.3
2022-11-10T22:31:47.990Z,7.2
2022-11-10T22:36:49.991Z,7.2
2022-11-10T22:41:52.708Z,7.2
2022-11-10T22:46:54.752Z,7.1
2022-11-10T22:51:57.053Z,7.2
2022-11-10T22:56:59.257Z,7.2
2022-11-10T23:02:02.084Z,7.1
2022-11-10T23:07:04.393Z,7.1
2022-11-10T23:12:06.472Z,7.1
2022-11-10T23:17:08.507Z,7
2022-11-10T23:22:10.546Z,7
2022-11-10T23:27:12.555Z,7
2022-11-10T23:32:14.633Z,7
2022-11-10T23:37:16.652Z,6.9
2022-11-10T23:42:19.498Z,6.9
2022-11-10T23:47:21.656Z,6.9
2022-11-10T23:52:23.725Z,6.9
